Garden Grove, Iowa
Current Conditions -  °F | °C
As of 9:35 AM on Friday 19 Dec 2014 (Local Time) from KI75 Reporting Station
Overcast Overcast  
Wind Chill: 30°   Ceiling: 3700
Heat Index: 30°   Visibility: 7mi
Dew Point: 28°   Wind: 0mph
Humidity: 93%   Direction: NA
Pressure: 30.28"   Gusts: NA
Location:  40.83°N, 93.61°W
Report Text: KI75 191535Z AUTO 00000KT 7SM SCT004 OVC037 M01/M02 A3028 RMK AO2 T10101020
Loading
Personal Weather Stations






























Interactive Weather Map New forecast layout! Learn more

10-Day Weather Forecast

Advertisements
Track Severe Weather on mobile